Time;durP1;ratioP1;P1;durP2;ratioP2;P2;SDS_P1;SDS_P2;PMS_P1;PMS_P2;Temp;Humidity;BMP_temperature;BMP_pressure;BME280_temperature;BME280_humidity;BME280_pressure;Samples;Min_cycle;Max_cycle;Signal;HPM_P1;HPM_P2
2023/10/30 00:00:07;;;;;;;0.47;0.30;;;;;;;16.31;76.79;99808.94;4992236;28;99652;-78
2023/10/30 00:02:34;;;;;;;1.55;0.40;;;;;;;16.23;76.85;99812.16;4999579;28;96859;-79
2023/10/30 00:05:02;;;;;;;6.53;0.50;;;;;;;16.53;75.61;99809.06;4989166;28;97050;-80
2023/10/30 00:07:29;;;;;;;0.98;0.25;;;;;;;16.47;75.61;99809.50;4990743;28;97806;-80
2023/10/30 00:09:55;;;;;;;1.55;0.43;;;;;;;16.46;75.15;99814.94;4992058;28;99251;-81
2023/10/30 00:12:22;;;;;;;0.85;0.30;;;;;;;16.47;75.08;99816.66;4991014;28;97472;-81
2023/10/30 00:14:50;;;;;;;4.35;0.40;;;;;;;16.53;74.29;99814.38;4988430;28;96903;-81
2023/10/30 00:17:16;;;;;;;3.63;0.45;;;;;;;16.41;74.56;99817.94;4990822;28;99899;-81
2023/10/30 00:19:43;;;;;;;0.88;0.32;;;;;;;16.43;74.41;99812.50;4992510;28;101623;-81
2023/10/30 00:22:11;;;;;;;1.77;0.65;;;;;;;16.21;74.47;99814.06;4992554;28;97415;-81
2023/10/30 00:24:37;;;;;;;2.03;0.28;;;;;;;16.19;74.23;99810.69;4993528;28;96732;-80
2023/10/30 00:27:04;;;;;;;1.40;0.35;;;;;;;16.20;74.33;99823.06;4992369;28;98129;-80
2023/10/30 00:29:32;;;;;;;5.00;0.68;;;;;;;16.29;73.91;99813.50;4990144;28;97757;-78
2023/10/30 00:31:59;;;;;;;1.20;0.30;;;;;;;16.33;73.06;99815.00;4988492;28;96980;-77
2023/10/30 00:34:25;;;;;;;0.93;0.32;;;;;;;16.31;73.23;99819.59;4986022;28;97464;-78
2023/10/30 00:36:52;;;;;;;0.75;0.40;;;;;;;16.29;73.36;99829.50;4992285;28;99259;-78
2023/10/30 00:39:19;;;;;;;6.28;0.47;;;;;;;16.02;73.87;99839.50;4990113;28;101549;-78
2023/10/30 00:41:45;;;;;;;2.65;0.50;;;;;;;16.12;73.58;99830.75;4988964;28;96792;-78
2023/10/30 00:44:12;;;;;;;;;;;;;;;16.38;71.98;99833.31;4989777;28;96950;-77
2023/10/30 00:46:38;;;;;;;4.75;0.50;;;;;;;16.41;71.76;99833.94;4990607;28;98979;-77
2023/10/30 00:49:04;;;;;;;2.28;0.30;;;;;;;16.53;71.17;99834.88;4985659;28;97977;-78
2023/10/30 00:51:31;;;;;;;0.60;0.20;;;;;;;16.62;70.42;99834.19;4988911;28;97509;-79
2023/10/30 00:53:57;;;;;;;1.52;0.30;;;;;;;16.53;70.76;99853.53;4990491;28;96869;-79
2023/10/30 00:56:25;;;;;;;3.47;0.40;;;;;;;16.44;70.51;99846.19;4988541;28;98316;-79
2023/10/30 00:58:51;;;;;;;2.28;0.20;;;;;;;16.41;70.71;99846.44;4988794;28;98749;-78
2023/10/30 01:01:18;;;;;;;2.83;0.50;;;;;;;16.51;70.64;99858.13;4989991;28;96980;-78
2023/10/30 01:03:45;;;;;;;0.98;0.30;;;;;;;16.64;69.96;99850.94;4988153;28;98933;-77
2023/10/30 01:06:12;;;;;;;3.65;0.50;;;;;;;16.61;69.53;99864.50;4984175;28;99233;-78
2023/10/30 01:08:39;;;;;;;1.52;0.32;;;;;;;16.58;69.49;99862.03;4987135;28;98819;-80
2023/10/30 01:11:05;;;;;;;3.17;0.50;;;;;;;16.54;69.82;99857.91;4988853;28;96765;-78
2023/10/30 01:13:33;;;;;;;2.03;0.40;;;;;;;16.61;69.53;99854.69;4989100;28;98688;-78
2023/10/30 01:15:59;;;;;;;4.32;0.38;;;;;;;16.66;69.17;99859.69;4981622;28;101434;-78
2023/10/30 01:18:26;;;;;;;0.63;0.20;;;;;;;16.53;69.64;99857.06;4988070;28;98871;-79
2023/10/30 01:20:52;;;;;;;1.02;0.40;;;;;;;16.50;69.87;99867.06;4985286;28;97571;-78
2023/10/30 01:23:19;;;;;;;2.10;0.30;;;;;;;16.52;69.29;99863.34;4988179;28;96854;-79
2023/10/30 01:25:46;;;;;;;1.95;0.55;;;;;;;16.43;70.15;99868.50;4988084;28;98229;-78
2023/10/30 01:28:12;;;;;;;1.00;0.40;;;;;;;16.44;70.33;99870.19;4989837;28;99753;-79
2023/10/30 01:30:40;;;;;;;7.72;0.60;;;;;;;16.44;70.37;99870.19;4988855;28;96913;-78
2023/10/30 01:33:07;;;;;;;1.33;0.40;;;;;;;16.44;70.25;99879.06;4988679;28;97628;-78
2023/10/30 01:35:33;;;;;;;3.42;0.50;;;;;;;16.31;71.09;99873.75;4989017;28;98843;-78
2023/10/30 01:38:00;;;;;;;1.85;0.40;;;;;;;16.46;70.48;99884.28;4982057;28;97352;-78
2023/10/30 01:40:26;;;;;;;3.80;0.50;;;;;;;16.45;70.17;99871.91;4987975;28;97128;-79
2023/10/30 01:42:52;;;;;;;1.65;0.50;;;;;;;16.34;71.24;99884.19;4987268;28;96868;-78
2023/10/30 01:45:19;;;;;;;3.30;0.45;;;;;;;16.52;69.71;99882.00;4988717;28;98927;-79
2023/10/30 01:47:47;;;;;;;1.75;0.30;;;;;;;16.62;69.51;99879.53;4989593;28;98954;-78
2023/10/30 01:50:14;;;;;;;1.70;0.40;;;;;;;16.29;70.69;99891.69;4987936;28;96987;-78
2023/10/30 01:52:41;;;;;;;4.88;0.63;;;;;;;16.43;70.61;99901.34;4988259;28;96990;-78
2023/10/30 01:55:09;;;;;;;3.40;0.30;;;;;;;16.16;71.05;99906.84;4987655;28;98890;-78
2023/10/30 01:57:36;;;;;;;1.80;0.32;;;;;;;16.20;71.38;99919.00;4989511;28;98103;-78
2023/10/30 02:00:03;;;;;;;5.13;0.90;;;;;;;16.26;70.96;99920.38;4988672;28;96762;-77
2023/10/30 02:02:32;;;;;;;3.30;0.60;;;;;;;16.21;71.37;99930.53;4990178;28;97171;-78
2023/10/30 02:05:00;;;;;;;3.55;0.73;;;;;;;16.20;71.17;99919.00;4984207;28;101033;-77
2023/10/30 02:07:26;;;;;;;3.45;0.68;;;;;;;16.20;70.75;99913.69;4988504;28;97895;-77
2023/10/30 02:09:54;;;;;;;1.30;0.35;;;;;;;16.19;71.59;99930.63;4986037;28;98525;-77
2023/10/30 02:12:21;;;;;;;0.50;0.20;;;;;;;16.30;70.92;99925.38;4988313;28;97138;-77
2023/10/30 02:14:47;;;;;;;2.47;0.30;;;;;;;16.22;71.17;99927.72;4992920;28;99001;-78
2023/10/30 02:17:13;;;;;;;5.70;0.50;;;;;;;16.23;71.16;99916.09;4989819;28;100936;-78
2023/10/30 02:19:40;;;;;;;3.47;0.63;;;;;;;16.28;70.84;99924.63;4989347;28;97344;-78
2023/10/30 02:22:08;;;;;;;3.08;0.70;;;;;;;16.48;69.56;99920.50;4988265;28;97011;-78
2023/10/30 02:24:35;;;;;;;1.15;0.40;;;;;;;16.40;70.16;99924.72;4987644;28;98891;-77
2023/10/30 02:27:03;;;;;;;2.05;0.35;;;;;;;16.19;70.80;99924.44;4979611;28;98052;-78
2023/10/30 02:29:29;;;;;;;3.08;0.40;;;;;;;16.24;71.16;99927.63;4987721;28;96765;-79
2023/10/30 02:31:56;;;;;;;1.60;0.60;;;;;;;16.34;70.82;99931.34;4987981;28;96888;-78
2023/10/30 02:34:22;;;;;;;2.88;0.50;;;;;;;16.16;71.51;99930.84;4986897;28;99661;-78
2023/10/30 02:36:48;;;;;;;1.38;0.43;;;;;;;16.28;70.86;99923.75;4987484;28;100330;-78
2023/10/30 02:39:15;;;;;;;3.80;0.75;;;;;;;16.49;69.86;99919.56;4986270;28;96766;-77
2023/10/30 02:41:41;;;;;;;1.33;0.60;;;;;;;16.55;69.59;99921.78;4988025;28;97350;-76
2023/10/30 02:44:09;;;;;;;1.30;0.47;;;;;;;16.65;69.31;99924.66;4991641;28;99318;-77
2023/10/30 02:46:35;;;;;;;3.75;0.40;;;;;;;16.58;69.53;99923.38;4989031;28;99266;-78
2023/10/30 02:49:02;;;;;;;3.60;0.80;;;;;;;16.71;69.40;99924.22;4989089;28;96927;-81
2023/10/30 02:51:28;;;;;;;5.35;0.50;;;;;;;16.56;69.01;99922.63;4989731;28;96918;-79
2023/10/30 02:53:55;;;;;;;1.20;0.50;;;;;;;16.61;69.22;99925.84;4988635;28;98900;-78
2023/10/30 02:56:21;;;;;;;1.55;0.40;;;;;;;16.60;69.16;99927.69;4989491;28;100216;-79
2023/10/30 02:58:48;;;;;;;0.88;0.40;;;;;;;16.57;69.13;99924.34;4989163;28;97873;-79
2023/10/30 03:01:16;;;;;;;2.83;0.35;;;;;;;16.73;68.58;99933.81;4997860;28;97232;-84
2023/10/30 03:03:42;;;;;;;6.43;0.50;;;;;;;16.72;69.02;99921.44;5001374;28;99806;-83
2023/10/30 03:06:09;;;;;;;3.80;0.82;;;;;;;16.49;69.49;99929.38;5002892;28;99971;-84
2023/10/30 03:08:35;;;;;;;5.45;0.88;;;;;;;16.53;69.38;99937.06;5004915;28;96588;-87
2023/10/30 03:11:02;;;;;;;3.20;0.52;;;;;;;16.71;68.64;99930.41;4988890;28;96907;-79
2023/10/30 03:13:28;;;;;;;3.25;0.28;;;;;;;16.59;69.41;99930.41;4988265;28;99108;-80
2023/10/30 03:15:55;;;;;;;6.00;0.60;;;;;;;16.51;69.60;99922.97;4986253;28;98729;-79
2023/10/30 03:18:22;;;;;;;5.00;0.32;;;;;;;16.25;70.74;99932.84;4983943;28;96804;-78
2023/10/30 03:20:49;;;;;;;2.85;0.40;;;;;;;16.54;69.68;99922.72;4987364;28;97862;-78
2023/10/30 03:23:15;;;;;;;3.20;0.35;;;;;;;16.55;69.76;99923.59;4986226;28;101021;-78
2023/10/30 03:25:42;;;;;;;3.60;0.25;;;;;;;16.53;68.98;99921.06;4989334;28;100758;-78
2023/10/30 03:28:09;;;;;;;3.00;0.50;;;;;;;16.54;69.29;99914.72;4980866;28;96741;-77
2023/10/30 03:30:35;;;;;;;4.63;0.50;;;;;;;16.60;69.22;99916.16;4988393;28;97178;-77
2023/10/30 03:33:02;;;;;;;3.80;0.50;;;;;;;16.50;69.25;99941.75;4985470;28;98980;-79
2023/10/30 03:35:30;;;;;;;2.00;0.32;;;;;;;16.56;69.22;99942.16;4989012;28;96962;-77
2023/10/30 03:37:57;;;;;;;4.35;0.57;;;;;;;16.43;69.55;99949.34;4987327;28;96861;-78
2023/10/30 03:40:24;;;;;;;2.00;0.40;;;;;;;16.45;69.61;99925.22;4995537;28;97804;-84
2023/10/30 03:42:50;;;;;;;3.33;0.50;;;;;;;16.29;69.84;99933.47;4991083;28;97607;-83
2023/10/30 03:45:17;;;;;;;6.68;0.80;;;;;;;16.42;69.87;99925.44;4988984;28;97813;-83
2023/10/30 03:47:43;;;;;;;4.68;0.77;;;;;;;16.45;69.82;99933.22;4980375;28;97608;-83
2023/10/30 03:50:12;;;;;;;3.15;0.50;;;;;;;16.61;68.91;99941.84;4988360;28;97628;-78
2023/10/30 03:52:40;;;;;;;2.33;0.43;;;;;;;16.64;68.37;99937.16;4992099;28;99149;-78
2023/10/30 03:55:08;;;;;;;4.70;0.60;;;;;;;16.69;68.39;99944.81;4990420;28;98856;-78
2023/10/30 03:57:34;;;;;;;3.15;0.60;;;;;;;16.60;68.65;99949.03;4990800;28;97272;-79
2023/10/30 04:00:01;;;;;;;2.85;0.70;;;;;;;16.65;68.39;99951.34;4991354;28;96817;-78
2023/10/30 04:02:28;;;;;;;1.70;0.50;;;;;;;16.67;68.50;99946.75;4991704;28;97610;-78
2023/10/30 04:04:54;;;;;;;2.47;0.60;;;;;;;16.72;67.97;99942.78;4989708;28;98099;-77
2023/10/30 04:07:21;;;;;;;6.20;0.60;;;;;;;16.81;68.21;99935.91;4991204;28;97606;-79
2023/10/30 04:09:48;;;;;;;1.95;0.50;;;;;;;16.77;68.17;99939.78;4988726;28;96850;-80
2023/10/30 04:12:15;;;;;;;4.40;0.70;;;;;;;16.74;67.85;99942.66;4991311;28;96967;-80
2023/10/30 04:14:41;;;;;;;6.88;0.65;;;;;;;16.70;67.98;99949.19;4986632;28;98685;-80
2023/10/30 04:17:08;;;;;;;6.30;0.63;;;;;;;16.73;68.01;99943.63;4989261;28;96976;-80
2023/10/30 04:19:34;;;;;;;1.67;0.40;;;;;;;16.67;68.29;99950.25;4990262;28;96906;-80
2023/10/30 04:22:01;;;;;;;3.55;0.80;;;;;;;16.64;68.69;99937.16;4988418;28;100932;-80
2023/10/30 04:24:27;;;;;;;3.35;0.50;;;;;;;16.62;68.79;99940.88;4989795;28;98880;-77
2023/10/30 04:26:55;;;;;;;2.75;0.75;;;;;;;16.71;68.70;99951.75;4990558;28;98558;-79
2023/10/30 04:29:22;;;;;;;4.82;1.40;;;;;;;16.80;68.32;99944.88;4988493;28;96660;-79
2023/10/30 04:31:48;;;;;;;3.85;0.80;;;;;;;16.61;68.31;99941.84;4986863;28;99390;-78
2023/10/30 04:34:14;;;;;;;3.08;0.77;;;;;;;16.70;68.45;99950.03;4991185;28;98540;-79
2023/10/30 04:36:41;;;;;;;1.15;0.60;;;;;;;16.63;69.20;99947.94;4989952;28;97300;-79
2023/10/30 04:39:10;;;;;;;4.07;0.60;;;;;;;16.68;68.66;99938.63;4988852;28;97259;-79
2023/10/30 04:41:37;;;;;;;2.80;0.65;;;;;;;16.66;68.65;99948.56;4991241;28;101639;-80
2023/10/30 04:44:05;;;;;;;2.05;0.40;;;;;;;16.45;69.45;99954.56;4990875;28;99278;-77
2023/10/30 04:46:31;;;;;;;3.05;0.68;;;;;;;16.57;69.09;99943.00;4989612;28;97327;-78
2023/10/30 04:48:58;;;;;;;4.45;0.82;;;;;;;16.47;69.56;99937.50;4987212;28;97511;-78
2023/10/30 04:51:25;;;;;;;3.92;0.60;;;;;;;16.39;70.33;99937.19;4990206;28;99289;-83
2023/10/30 04:53:54;;;;;;;5.70;0.47;;;;;;;16.50;69.76;99945.25;4989261;28;101048;-76
2023/10/30 04:56:20;;;;;;;5.13;1.05;;;;;;;16.35;70.29;99947.22;4987885;28;96770;-76
2023/10/30 04:58:47;;;;;;;1.70;0.57;;;;;;;16.55;69.65;99955.59;4988998;28;97093;-77
2023/10/30 05:01:14;;;;;;;1.23;0.47;;;;;;;16.67;69.37;99944.91;4989043;28;99110;-77
2023/10/30 05:03:41;;;;;;;6.55;0.70;;;;;;;16.74;68.70;99948.84;4990222;28;98479;-77
2023/10/30 05:06:07;;;;;;;4.90;0.88;;;;;;;16.52;69.82;99966.50;4989073;28;96902;-77
2023/10/30 05:08:36;;;;;;;6.95;0.98;;;;;;;16.57;69.48;99967.00;4985259;28;97660;-77
2023/10/30 05:11:02;;;;;;;4.05;0.55;;;;;;;16.62;69.54;99965.75;4983583;28;102583;-77
2023/10/30 05:13:29;;;;;;;4.30;0.80;;;;;;;16.38;70.26;99969.28;4985230;28;98227;-82
2023/10/30 05:15:57;;;;;;;4.30;0.60;;;;;;;16.35;70.66;99965.88;4991732;28;97063;-82
2023/10/30 05:18:25;;;;;;;3.63;0.60;;;;;;;16.29;70.88;99976.97;4983775;28;97264;-82
2023/10/30 05:20:52;;;;;;;3.08;0.60;;;;;;;16.30;70.45;99968.03;4992092;28;99327;-82
2023/10/30 05:23:18;;;;;;;2.92;0.40;;;;;;;16.37;70.84;99976.44;4990131;28;97667;-82
2023/10/30 05:25:45;;;;;;;4.78;0.98;;;;;;;16.47;70.17;99977.50;4989851;28;97189;-82
2023/10/30 05:28:11;;;;;;;6.82;0.75;;;;;;;16.51;70.51;99976.31;4989651;28;97351;-83
2023/10/30 05:30:38;;;;;;;9.25;1.02;;;;;;;16.31;70.77;99979.53;4988298;28;100784;-82
2023/10/30 05:33:05;;;;;;;3.83;0.70;;;;;;;16.34;70.68;99979.34;4990977;28;101352;-83
2023/10/30 05:35:33;;;;;;;3.50;0.65;;;;;;;16.46;70.72;99972.28;4989546;28;96922;-78
2023/10/30 05:38:00;;;;;;;7.05;1.00;;;;;;;16.45;70.44;99981.22;4994576;28;97161;-80
2023/10/30 05:40:26;;;;;;;1.90;0.40;;;;;;;16.39;70.70;99981.66;4986121;28;98882;-79
2023/10/30 05:42:52;;;;;;;4.32;0.80;;;;;;;16.42;70.49;99982.28;4990724;28;98559;-79
2023/10/30 05:45:19;;;;;;;2.42;0.80;;;;;;;16.28;71.10;99985.94;4989578;28;96833;-79
2023/10/30 05:47:45;;;;;;;6.28;0.90;;;;;;;16.27;71.46;100000.25;4986230;28;96970;-79
2023/10/30 05:50:12;;;;;;;1.73;0.63;;;;;;;16.29;71.21;99995.66;4986056;28;97690;-80
2023/10/30 05:52:40;;;;;;;5.70;1.42;;;;;;;16.40;70.94;99997.56;4988014;28;100155;-80
2023/10/30 05:55:08;;;;;;;2.20;0.50;;;;;;;16.21;71.71;100005.16;4994590;28;96991;-81
2023/10/30 05:57:36;;;;;;;3.33;0.47;;;;;;;16.30;71.49;100010.69;4987459;28;96884;-80
2023/10/30 06:00:03;;;;;;;3.80;0.68;;;;;;;16.39;71.54;99993.19;4994340;28;101538;-80
2023/10/30 06:02:31;;;;;;;2.95;0.80;;;;;;;16.39;71.26;99997.66;4987396;28;96781;-79
2023/10/30 06:04:57;;;;;;;2.85;0.70;;;;;;;16.39;71.22;100003.00;4989582;28;96973;-80
2023/10/30 06:07:24;;;;;;;13.05;0.70;;;;;;;16.52;70.74;100001.16;4989834;28;97073;-81
2023/10/30 06:09:52;;;;;;;1.48;0.45;;;;;;;16.41;71.19;99999.25;4988711;28;99265;-85
2023/10/30 06:12:18;;;;;;;2.42;0.70;;;;;;;16.55;70.34;100008.94;4988895;28;98914;-81
2023/10/30 06:14:44;;;;;;;2.45;0.55;;;;;;;16.23;71.62;99993.41;4989252;28;97919;-81
2023/10/30 06:17:11;;;;;;;9.07;1.05;;;;;;;16.41;71.32;100009.09;4987481;28;97581;-82
2023/10/30 06:19:38;;;;;;;2.58;0.60;;;;;;;16.24;71.84;100018.25;4986951;28;99143;-84
2023/10/30 06:22:04;;;;;;;6.35;3.70;;;;;;;16.49;71.16;100015.56;4996236;28;99343;-85
2023/10/30 06:24:32;;;;;;;7.25;1.92;;;;;;;16.55;71.13;100030.25;4991858;28;96854;-85
2023/10/30 06:26:59;;;;;;;10.27;1.30;;;;;;;16.47;71.07;100032.66;4995157;28;98632;-80
2023/10/30 06:29:26;;;;;;;2.15;0.68;;;;;;;16.46;70.99;100021.13;4995089;28;99695;-80
2023/10/30 06:31:53;;;;;;;6.38;1.00;;;;;;;16.45;71.26;100029.22;4994886;28;97775;-83
2023/10/30 06:34:19;;;;;;;4.35;0.85;;;;;;;16.59;70.73;100031.78;4998014;28;97452;-84
2023/10/30 06:36:47;;;;;;;2.08;0.85;;;;;;;16.61;71.08;100029.84;4989230;28;98101;-85
2023/10/30 06:39:17;;;;;;;7.55;1.10;;;;;;;16.66;70.48;100031.25;4995143;28;100052;-84
2023/10/30 06:41:44;;;;;;;3.50;1.00;;;;;;;16.60;70.47;100038.84;4995903;28;100211;-83
2023/10/30 06:44:11;;;;;;;6.07;0.82;;;;;;;16.81;70.06;100026.59;4980812;28;96855;-77
2023/10/30 06:46:38;;;;;;;6.60;2.50;;;;;;;16.87;69.70;100031.50;4985695;28;100384;-78
2023/10/30 06:49:05;;;;;;;5.05;2.00;;;;;;;16.72;70.28;100032.63;4986069;28;98820;-79
2023/10/30 06:51:31;;;;;;;5.25;1.48;;;;;;;16.93;69.32;100030.22;4986963;28;98889;-79
2023/10/30 06:53:58;;;;;;;9.02;1.13;;;;;;;17.04;69.11;100024.94;4987881;28;96948;-81
2023/10/30 06:56:24;;;;;;;4.65;0.77;;;;;;;17.01;68.57;100042.03;4990030;28;97406;-80
2023/10/30 06:58:50;;;;;;;3.75;1.23;;;;;;;16.89;69.58;100044.72;4986993;28;98679;-80
2023/10/30 07:01:18;;;;;;;3.40;0.63;;;;;;;16.95;69.11;100038.94;4984646;28;99182;-77
2023/10/30 07:03:45;;;;;;;4.40;0.95;;;;;;;17.02;69.00;100035.72;4985284;28;99099;-78
2023/10/30 07:06:11;;;;;;;5.80;1.20;;;;;;;17.27;68.23;100023.22;4984275;28;97431;-77
2023/10/30 07:08:38;;;;;;;5.72;0.57;;;;;;;17.44;66.93;100025.50;4985118;28;101152;-78
2023/10/30 07:11:04;;;;;;;3.20;0.60;;;;;;;17.33;66.78;100042.31;4985391;28;98926;-78
2023/10/30 07:13:31;;;;;;;5.88;0.85;;;;;;;17.42;67.04;100046.97;4987830;28;97166;-80
2023/10/30 07:15:57;;;;;;;3.25;1.00;;;;;;;17.14;68.06;100039.31;4990702;28;96815;-78
2023/10/30 07:18:25;;;;;;;4.78;1.90;;;;;;;17.20;67.98;100040.69;4987680;28;98859;-80
2023/10/30 07:20:51;;;;;;;3.90;0.80;;;;;;;17.52;67.08;100049.84;4988080;28;99245;-77
2023/10/30 07:23:18;;;;;;;8.00;0.93;;;;;;;17.51;66.56;100048.13;4985717;28;96799;-82
2023/10/30 07:25:44;;;;;;;5.40;0.80;;;;;;;17.46;66.23;100047.59;4985580;28;96950;-82
2023/10/30 07:28:11;;;;;;;3.33;1.10;;;;;;;17.59;66.27;100055.56;4990381;28;100281;-80
2023/10/30 07:30:38;;;;;;;2.67;0.90;;;;;;;17.48;66.65;100064.38;4990605;28;98737;-79
2023/10/30 07:33:04;;;;;;;5.53;0.85;;;;;;;17.36;67.01;100081.31;4990488;28;97601;-81
2023/10/30 07:35:32;;;;;;;10.23;1.50;;;;;;;17.36;67.11;100060.78;4994569;28;96852;-81
2023/10/30 07:37:59;;;;;;;8.95;1.23;;;;;;;17.58;66.17;100065.41;4990905;28;98819;-81
2023/10/30 07:40:26;;;;;;;3.13;0.70;;;;;;;17.26;66.57;100059.78;4990947;28;98442;-79
2023/10/30 07:42:53;;;;;;;6.00;0.90;;;;;;;17.32;67.21;100063.81;4990475;28;96969;-81
2023/10/30 07:45:20;;;;;;;4.63;1.00;;;;;;;17.33;66.94;100069.03;4987465;28;97184;-81
2023/10/30 07:47:46;;;;;;;3.20;0.98;;;;;;;17.50;66.51;100076.66;4987356;28;101400;-78
2023/10/30 07:50:13;;;;;;;6.50;0.70;;;;;;;17.54;65.86;100077.25;4987540;28;99585;-78
2023/10/30 07:52:40;;;;;;;6.43;0.85;;;;;;;17.61;65.70;100075.88;4990119;28;99653;-80
2023/10/30 07:55:08;;;;;;;5.80;0.80;;;;;;;17.72;65.08;100077.75;4990714;28;97775;-79
2023/10/30 07:57:34;;;;;;;4.30;0.70;;;;;;;17.74;64.73;100068.63;4994904;28;102432;-80
2023/10/30 08:00:01;;;;;;;2.75;0.80;;;;;;;17.80;64.04;100054.81;4987754;28;97721;-80
2023/10/30 08:02:27;;;;;;;5.38;1.20;;;;;;;17.96;64.00;100053.63;4986082;28;100460;-80
2023/10/30 08:04:54;;;;;;;4.28;1.05;;;;;;;17.96;63.33;100059.00;4986561;28;97184;-79
2023/10/30 08:07:21;;;;;;;5.43;1.52;;;;;;;18.02;64.15;100075.41;4982574;28;99159;-78
2023/10/30 08:09:49;;;;;;;3.35;0.90;;;;;;;17.94;64.00;100083.16;4988272;28;98748;-77
2023/10/30 08:12:16;;;;;;;13.60;1.30;;;;;;;18.09;63.77;100079.31;4979749;28;97823;-76
2023/10/30 08:14:42;;;;;;;3.80;0.95;;;;;;;18.24;62.38;100079.97;4988599;28;97103;-77
2023/10/30 08:17:09;;;;;;;4.50;0.82;;;;;;;18.07;63.17;100083.91;4987283;28;97820;-77
2023/10/30 08:19:35;;;;;;;8.27;0.93;;;;;;;18.12;63.27;100083.56;4986653;28;97616;-77
2023/10/30 08:22:02;;;;;;;7.70;1.35;;;;;;;18.20;63.21;100084.69;4988204;28;96831;-77
2023/10/30 08:24:28;;;;;;;6.88;1.17;;;;;;;18.51;61.76;100083.13;4986191;28;97072;-78
2023/10/30 08:26:56;;;;;;;5.68;1.23;;;;;;;18.46;61.66;100074.63;4986737;28;97805;-78
2023/10/30 08:29:22;;;;;;;4.78;0.95;;;;;;;18.42;61.93;100083.88;4985802;28;99031;-78
2023/10/30 08:31:48;;;;;;;9.35;1.10;;;;;;;18.44;61.74;100087.28;4987853;28;97259;-77
2023/10/30 08:34:15;;;;;;;6.88;1.50;;;;;;;18.53;60.94;100080.34;4996007;28;97265;-78
2023/10/30 08:36:41;;;;;;;8.18;1.45;;;;;;;18.76;60.89;100079.41;4987884;28;98905;-77
2023/10/30 08:39:08;;;;;;;6.10;1.08;;;;;;;18.74;61.08;100083.19;4990736;28;99396;-77
2023/10/30 08:41:35;;;;;;;6.70;1.40;;;;;;;18.87;60.14;100087.44;4979720;28;97376;-78
2023/10/30 08:44:04;;;;;;;8.50;0.98;;;;;;;18.86;59.70;100087.53;4987207;28;96937;-78
2023/10/30 08:46:30;;;;;;;9.10;1.33;;;;;;;18.84;60.10;100097.53;4988024;28;99228;-78
2023/10/30 08:48:57;;;;;;;5.90;1.05;;;;;;;19.03;59.79;100093.25;4987216;28;97727;-78
2023/10/30 08:51:24;;;;;;;9.55;1.85;;;;;;;19.10;59.83;100077.53;4987263;28;99442;-78
2023/10/30 08:53:50;;;;;;;5.15;0.80;;;;;;;19.17;59.20;100086.75;4988470;28;96831;-77
2023/10/30 08:56:17;;;;;;;12.98;1.35;;;;;;;18.91;59.24;100083.53;4986983;28;100168;-77
2023/10/30 08:58:43;;;;;;;5.57;0.90;;;;;;;18.86;60.65;100076.84;4986870;28;100975;-76
2023/10/30 09:01:11;;;;;;;8.90;1.10;;;;;;;19.23;59.65;100074.72;4985370;28;97296;-77
2023/10/30 09:03:37;;;;;;;6.70;1.40;;;;;;;19.25;59.27;100083.47;4987462;28;97270;-77
2023/10/30 09:06:04;;;;;;;5.75;1.55;;;;;;;19.49;58.87;100086.88;4984325;28;100837;-77
2023/10/30 09:08:30;;;;;;;9.18;2.00;;;;;;;19.66;57.42;100078.25;4987583;28;101100;-78
2023/10/30 09:10:58;;;;;;;8.05;2.42;;;;;;;19.57;58.11;100078.16;4987570;28;98083;-78
2023/10/30 09:13:24;;;;;;;9.00;2.25;;;;;;;19.78;57.66;100087.09;4985976;28;97227;-77
2023/10/30 09:15:51;;;;;;;9.95;1.80;;;;;;;19.87;57.26;100086.34;4985404;28;98174;-78
2023/10/30 09:18:18;;;;;;;7.00;1.25;;;;;;;19.42;58.45;100080.28;4988087;28;100480;-76
2023/10/30 09:20:45;;;;;;;10.30;1.48;;;;;;;19.40;58.21;100076.84;4988280;28;97410;-77
2023/10/30 09:23:11;;;;;;;3.25;1.00;;;;;;;19.33;58.59;100065.78;4985384;28;97542;-77
2023/10/30 09:25:38;;;;;;;2.72;0.70;;;;;;;19.34;58.21;100066.66;4987102;28;98917;-79
2023/10/30 09:28:04;;;;;;;9.75;3.03;;;;;;;19.28;58.37;100070.69;4983510;28;98751;-79
2023/10/30 09:30:31;;;;;;;4.72;0.95;;;;;;;19.09;58.11;100075.84;4991100;28;96788;-79
2023/10/30 09:32:59;;;;;;;3.22;0.95;;;;;;;19.33;58.26;100086.38;4987008;28;97573;-79
2023/10/30 09:35:29;;;;;;;10.65;1.20;;;;;;;19.22;58.23;100086.41;4989785;28;101818;-78
2023/10/30 09:37:55;;;;;;;8.60;1.40;;;;;;;18.91;59.37;100093.38;4987658;28;101125;-78
2023/10/30 09:40:26;;;;;;;5.53;0.93;;;;;;;19.25;58.56;100099.53;4990311;28;97662;-79
2023/10/30 09:42:53;;;;;;;6.57;1.27;;;;;;;19.49;57.59;100085.00;4988306;28;97352;-77
2023/10/30 09:45:22;;;;;;;8.20;1.02;;;;;;;19.54;57.10;100086.47;4989287;28;99371;-78
2023/10/30 09:47:49;;;;;;;6.20;1.35;;;;;;;19.68;57.02;100087.03;4989597;28;101194;-78
2023/10/30 09:50:16;;;;;;;6.20;1.17;;;;;;;19.61;57.05;100077.81;4987052;28;98616;-78
2023/10/30 09:52:47;;;;;;;6.28;0.93;;;;;;;19.94;57.23;100084.84;4987409;28;96819;-78
2023/10/30 09:55:13;;;;;;;7.53;1.13;;;;;;;19.98;55.74;100082.72;4988059;28;99443;-78
2023/10/30 09:57:40;;;;;;;4.63;0.95;;;;;;;20.04;55.68;100083.06;4984281;28;97947;-78
2023/10/30 10:00:10;;;;;;;8.57;1.20;;;;;;;20.22;55.67;100081.47;4991059;28;97461;-79
2023/10/30 10:02:36;;;;;;;7.45;1.40;;;;;;;20.08;55.47;100089.03;4990150;28;97643;-78
2023/10/30 10:05:03;;;;;;;7.57;1.65;;;;;;;20.20;54.98;100098.72;4989716;28;99112;-78
2023/10/30 10:07:32;;;;;;;5.82;1.30;;;;;;;20.14;55.29;100094.72;5000229;28;102507;-79
2023/10/30 10:10:01;;;;;;;4.65;1.10;;;;;;;20.24;54.90;100092.09;4991206;28;96958;-79
2023/10/30 10:12:29;;;;;;;8.05;2.67;;;;;;;20.23;55.27;100095.75;4989523;28;97413;-79
2023/10/30 10:14:55;;;;;;;9.10;2.13;;;;;;;20.24;55.09;100111.72;4987012;28;99241;-79
2023/10/30 10:17:22;;;;;;;5.13;1.48;;;;;;;20.40;54.84;100108.63;4985931;28;101451;-78
2023/10/30 10:19:49;;;;;;;9.90;3.10;;;;;;;20.37;55.14;100105.31;4984625;28;97632;-80
2023/10/30 10:22:29;;;;;;;8.25;1.80;;;;;;;20.59;54.37;100107.88;4982868;28;101628;-79
2023/10/30 10:24:56;;;;;;;7.18;2.58;;;;;;;20.72;53.60;100105.81;4982919;28;101560;-78
2023/10/30 10:27:25;;;;;;;7.70;1.20;;;;;;;20.76;53.82;100115.28;4991052;28;98627;-79
2023/10/30 10:29:55;;;;;;;9.57;1.38;;;;;;;20.61;54.16;100108.59;4993992;28;97130;-79
2023/10/30 10:32:24;;;;;;;8.85;1.10;;;;;;;20.66;53.52;100111.72;4980776;28;97411;-78
2023/10/30 10:34:50;;;;;;;9.73;1.80;;;;;;;20.43;54.14;100111.00;4985780;28;98923;-78
2023/10/30 10:37:18;;;;;;;7.75;1.67;;;;;;;20.80;53.71;100108.69;4985258;28;98600;-78
2023/10/30 10:39:48;;;;;;;11.10;1.23;;;;;;;20.65;54.25;100115.38;4984020;28;97512;-79
2023/10/30 10:42:16;;;;;;;6.15;1.08;;;;;;;20.54;53.60;100104.75;4984568;28;97366;-79
2023/10/30 10:44:45;;;;;;;5.88;1.17;;;;;;;20.56;54.22;100108.97;4984451;28;101149;-80
2023/10/30 10:47:12;;;;;;;4.65;1.38;;;;;;;20.51;54.85;100111.22;4979714;28;100966;-79
2023/10/30 10:49:38;;;;;;;9.75;1.23;;;;;;;20.72;54.54;100116.56;4985530;28;97556;-79
2023/10/30 10:52:14;;;;;;;5.55;1.02;;;;;;;20.80;53.95;100116.75;4985707;28;97588;-80
2023/10/30 10:54:49;;;;;;;10.40;1.42;;;;;;;20.83;54.28;100119.13;4983545;28;101361;-80
2023/10/30 10:57:19;;;;;;;6.63;1.25;;;;;;;20.52;54.92;100110.22;4984269;28;98846;-78
2023/10/30 10:59:48;;;;;;;5.78;1.35;;;;;;;20.42;54.75;100105.78;4984770;28;97033;-78
2023/10/30 11:02:21;;;;;;;6.82;0.98;;;;;;;20.21;55.76;100116.50;4985575;28;97327;-78
2023/10/30 11:04:50;;;;;;;5.95;1.40;;;;;;;20.07;56.18;100114.16;4985294;28;103524;-78
2023/10/30 11:07:24;;;;;;;8.10;1.20;;;;;;;20.07;56.08;100115.00;4982612;28;99030;-77
2023/10/30 11:09:56;;;;;;;2.58;1.05;;;;;;;20.17;56.42;100117.72;4981322;28;98084;-77
2023/10/30 11:12:34;;;;;;;6.28;1.15;;;;;;;19.90;56.99;100118.22;4983265;28;97666;-77
2023/10/30 11:15:12;;;;;;;7.68;0.95;;;;;;;19.61;57.20;100101.91;4981029;28;102166;-78
2023/10/30 11:17:39;;;;;;;7.05;1.20;;;;;;;19.73;57.79;100102.72;4984466;28;99117;-77
2023/10/30 11:20:08;;;;;;;2.88;1.10;;;;;;;19.89;56.67;100109.34;4985678;28;97327;-78
2023/10/30 11:22:39;;;;;;;3.47;1.05;;;;;;;19.99;57.41;100096.03;4982499;28;96783;-79
2023/10/30 11:25:06;;;;;;;5.55;1.15;;;;;;;20.16;57.08;100091.88;4981216;28;98105;-78
2023/10/30 11:27:38;;;;;;;7.03;1.30;;;;;;;19.98;57.02;100093.47;4984078;28;98983;-81